Terminal Aerodrome Forecast
Issued by NWS

Home | Current Version | Previous Version | Text Only | Print | Product List | Glossary On
Versions: 1 2 3 4 5 6 7 8 9 10 11 12 13 14 15 16 17 18 19 20
000
FTUS43 KMPX 131700
TAFRNH
TAF
KRNH 131722Z 1318/1418 28012G20KT P6SM SCT050
     FM140000 30007KT P6SM SCT060
     FM140500 30005KT P6SM BKN050
     FM141400 31011G20KT P6SM VCSH BKN040=

USA.gov is the U.S. government's official web portal to all federal, state and local government web resources and services.